Time;durP1;ratioP1;P1;durP2;ratioP2;P2;SDS_P1;SDS_P2;PMS_P1;PMS_P2;Temp;Humidity;BMP_temperature;BMP_pressure;BME280_temperature;BME280_humidity;BME280_pressure;Samples;Min_cycle;Max_cycle;Signal;HPM_P1;HPM_P2
2022/01/02 00:01:01;;;;;;;;;;;3.30;99.90;;;;;;5035471;28;19960;-74
2022/01/02 00:03:35;;;;;;;;;;;3.20;99.90;;;;;;5036619;28;20646;-74
2022/01/02 00:06:07;;;;;;;;;;;3.20;99.90;;;;;;5039575;28;20281;-75
2022/01/02 00:08:40;;;;;;;;;;;3.20;99.90;;;;;;5036299;28;20118;-75
2022/01/02 00:11:15;;;;;;;;;;;3.30;99.90;;;;;;5036025;28;19948;-75
2022/01/02 00:13:46;;;;;;;;;;;3.30;99.90;;;;;;5056329;28;20435;-75
2022/01/02 00:16:17;;;;;;;;;;;3.30;99.90;;;;;;5036086;28;20011;-75
2022/01/02 00:18:51;;;;;;;;;;;3.20;99.90;;;;;;5019633;28;20361;-74
2022/01/02 00:21:18;;;;;;;;;;;3.20;99.90;;;;;;5052659;28;20016;-75
2022/01/02 00:24:02;;;;;;;;;;;3.30;99.90;;;;;;5036583;28;20030;-74
2022/01/02 00:26:41;;;;;;;;;;;3.30;99.90;;;;;;5036005;28;19928;-75
2022/01/02 00:29:08;;;;;;;;;;;3.40;99.90;;;;;;5035694;28;19994;-74
2022/01/02 00:31:35;;;;;;;;;;;3.30;99.90;;;;;;5019283;28;19921;-74
2022/01/02 00:34:03;;;;;;;;;;;3.20;99.90;;;;;;5018669;28;19956;-75
2022/01/02 00:36:30;;;;;;;;;;;3.20;99.90;;;;;;5035520;28;20401;-75
2022/01/02 00:39:02;;;;;;;;;;;3.20;99.90;;;;;;5053131;28;19925;-75
2022/01/02 00:41:37;;;;;;;;;;;3.20;99.90;;;;;;5035267;28;19921;-76
2022/01/02 00:44:12;;;;;;;;;;;3.10;99.90;;;;;;5034983;28;19967;-74
2022/01/02 00:46:51;;;;;;;;;;;3.20;99.90;;;;;;5051906;28;20019;-75
2022/01/02 00:49:24;;;;;;;;;;;3.10;99.90;;;;;;5035428;28;20350;-74
2022/01/02 00:51:55;;;;;;;;;;;3.10;99.90;;;;;;5035176;28;19924;-75
2022/01/02 00:54:27;;;;;;;;;;;3.00;99.90;;;;;;5034624;28;20424;-75
2022/01/02 00:57:03;;;;;;;;;;;3.00;99.90;;;;;;5035094;28;20031;-75
2022/01/02 00:59:34;;;;;;;;;;;3.00;99.90;;;;;;5018618;28;19921;-75
2022/01/02 01:02:07;;;;;;;;;;;3.00;99.90;;;;;;5051463;28;20381;-75
2022/01/02 01:04:37;;;;;;;;;;;2.90;99.90;;;;;;5034641;28;19960;-74
2022/01/02 01:07:09;;;;;;;;;;;2.80;99.90;;;;;;5034785;28;19921;-75
2022/01/02 01:09:36;;;;;;;;;;;2.80;99.90;;;;;;5034840;28;19952;-74
2022/01/02 01:12:10;;;;;;;;;;;2.80;99.90;;;;;;5018997;28;19928;-75
2022/01/02 01:14:41;;;;;;;;;;;2.70;99.90;;;;;;5035199;28;20472;-75
2022/01/02 01:17:09;;;;;;;;;;;2.70;99.90;;;;;;5018392;28;19956;-75
2022/01/02 01:19:35;;;;;;;;;;;2.70;99.90;;;;;;5018322;28;20304;-74
2022/01/02 01:22:08;;;;;;;;;;;2.70;99.90;;;;;;5018785;28;20342;-74
2022/01/02 01:24:36;;;;;;;;;;;2.80;99.90;;;;;;5017940;28;19921;-75
2022/01/02 01:27:04;;;;;;;;;;;2.80;99.90;;;;;;5035487;28;20348;-74
2022/01/02 01:29:34;;;;;;;;;;;2.80;99.90;;;;;;5033778;28;20026;-75
2022/01/02 01:32:07;;;;;;;;;;;2.80;99.90;;;;;;5050335;28;19975;-75
2022/01/02 01:34:34;;;;;;;;;;;2.80;99.90;;;;;;5034310;28;19927;-75
2022/01/02 01:37:06;;;;;;;;;;;2.90;99.90;;;;;;5035072;28;19921;-75
2022/01/02 01:39:40;;;;;;;;;;;2.80;99.90;;;;;;5034023;28;19929;-74
2022/01/02 01:42:10;;;;;;;;;;;2.80;99.90;;;;;;5017141;28;20381;-75
2022/01/02 01:47:33;;;;;;;;;;;2.90;99.90;;;;;;4988003;28;19920;-74
2022/01/02 01:50:02;;;;;;;;;;;2.90;99.90;;;;;;5026553;28;19928;-74
2022/01/02 01:52:29;;;;;;;;;;;3.00;99.90;;;;;;5033462;28;19975;-74
2022/01/02 01:54:55;;;;;;;;;;;3.00;99.90;;;;;;5034070;28;19924;-74
2022/01/02 01:57:27;;;;;;;;;;;3.00;99.90;;;;;;5051872;28;19920;-74
2022/01/02 01:59:59;;;;;;;;;;;3.00;99.90;;;;;;5030331;28;19968;-74
2022/01/02 02:02:32;;;;;;;;;;;3.00;99.90;;;;;;5049022;28;19927;-74
2022/01/02 02:04:59;;;;;;;;;;;3.00;99.90;;;;;;5032077;28;20349;-74
2022/01/02 02:07:39;;;;;;;;;;;3.30;99.90;;;;;;5033311;28;20324;-74
2022/01/02 02:12:44;;;;;;;;;;;3.50;99.90;;;;;;5033027;28;19924;-74
2022/01/02 02:15:13;;;;;;;;;;;3.40;99.90;;;;;;5033260;28;19927;-74
2022/01/02 02:17:40;;;;;;;;;;;3.20;99.90;;;;;;5049889;28;19990;-74
2022/01/02 02:20:24;;;;;;;;;;;3.00;99.90;;;;;;5033189;28;19925;-73
2022/01/02 02:22:55;;;;;;;;;;;2.90;99.90;;;;;;5034361;28;20274;-74
2022/01/02 02:25:23;;;;;;;;;;;2.80;99.90;;;;;;5055263;28;19966;-74
2022/01/02 02:27:56;;;;;;;;;;;2.70;99.90;;;;;;5038149;28;19925;-74
2022/01/02 02:30:24;;;;;;;;;;;2.70;99.90;;;;;;5037895;28;19920;-74
2022/01/02 02:32:53;;;;;;;;;;;2.70;99.90;;;;;;5037694;28;19971;-74
2022/01/02 02:35:21;;;;;;;;;;;2.70;99.90;;;;;;5037785;28;19924;-73
2022/01/02 02:37:48;;;;;;;;;;;2.70;99.90;;;;;;5055929;28;19921;-74
2022/01/02 02:40:18;;;;;;;;;;;2.60;99.90;;;;;;5037266;28;19920;-74
2022/01/02 02:42:52;;;;;;;;;;;2.60;99.90;;;;;;5036783;28;19921;-74
2022/01/02 02:51:02;;;;;;;;;;;2.70;99.90;;;;;;5036873;28;19921;-74
2022/01/02 02:53:35;;;;;;;;;;;2.60;99.90;;;;;;5037301;28;19951;-74
2022/01/02 02:56:16;;;;;;;;;;;2.60;99.90;;;;;;5038518;28;19943;-74
2022/01/02 02:58:43;;;;;;;;;;;2.60;99.90;;;;;;5037359;28;19920;-74
2022/01/02 03:01:17;;;;;;;;;;;2.70;99.90;;;;;;5021679;28;19959;-74
2022/01/02 03:03:51;;;;;;;;;;;2.70;99.90;;;;;;5038059;28;19986;-74
2022/01/02 03:06:18;;;;;;;;;;;2.60;99.90;;;;;;5037249;28;20285;-74
2022/01/02 03:08:45;;;;;;;;;;;2.60;99.90;;;;;;5037101;28;19925;-73
2022/01/02 03:11:20;;;;;;;;;;;2.50;99.90;;;;;;5037147;28;20316;-74
2022/01/02 03:13:49;;;;;;;;;;;2.50;99.90;;;;;;5036813;28;20011;-74
2022/01/02 03:16:16;;;;;;;;;;;2.40;99.90;;;;;;5020671;28;19943;-74
2022/01/02 03:18:43;;;;;;;;;;;2.30;99.90;;;;;;5037035;28;20384;-74
2022/01/02 03:21:15;;;;;;;;;;;2.30;99.90;;;;;;5021200;28;19971;-74
2022/01/02 03:23:41;;;;;;;;;;;2.30;99.90;;;;;;5036748;28;19920;-74
2022/01/02 03:26:13;;;;;;;;;;;2.40;99.90;;;;;;5036718;28;20304;-74
2022/01/02 03:28:45;;;;;;;;;;;2.30;99.90;;;;;;5054732;28;19920;-75
2022/01/02 03:31:12;;;;;;;;;;;2.40;99.90;;;;;;5036754;28;19921;-74
2022/01/02 03:33:39;;;;;;;;;;;2.50;99.90;;;;;;5035487;28;19921;-74
2022/01/02 03:36:10;;;;;;;;;;;2.50;99.90;;;;;;5036335;28;20378;-74
2022/01/02 03:38:42;;;;;;;;;;;2.60;99.90;;;;;;5036469;28;19920;-74
2022/01/02 03:41:09;;;;;;;;;;;2.60;99.90;;;;;;5020394;28;20015;-74
2022/01/02 03:43:36;;;;;;;;;;;2.50;99.90;;;;;;5036375;28;19963;-75
2022/01/02 03:46:08;;;;;;;;;;;2.40;99.90;;;;;;5037309;28;19927;-74
2022/01/02 03:48:40;;;;;;;;;;;2.40;99.90;;;;;;5054331;28;19924;-74
2022/01/02 03:51:09;;;;;;;;;;;2.40;99.90;;;;;;5036228;28;19988;-74
2022/01/02 03:53:36;;;;;;;;;;;2.30;99.90;;;;;;5036191;28;19925;-74
2022/01/02 03:56:02;;;;;;;;;;;2.30;99.90;;;;;;5054197;28;20011;-74
2022/01/02 03:58:30;;;;;;;;;;;2.30;99.90;;;;;;5036507;28;20299;-74
2022/01/02 04:01:02;;;;;;;;;;;2.40;99.90;;;;;;5020460;28;19924;-74
2022/01/02 04:03:29;;;;;;;;;;;2.50;99.90;;;;;;5035709;28;20385;-74
2022/01/02 04:05:55;;;;;;;;;;;2.40;99.90;;;;;;5019723;28;19959;-74
2022/01/02 04:08:27;;;;;;;;;;;2.40;99.90;;;;;;5020266;28;20377;-74
2022/01/02 04:10:59;;;;;;;;;;;2.40;99.90;;;;;;5020426;28;19927;-75
2022/01/02 04:13:26;;;;;;;;;;;2.30;99.90;;;;;;5035611;28;19979;-74
2022/01/02 04:15:59;;;;;;;;;;;2.40;99.90;;;;;;5035879;28;19920;-73
2022/01/02 04:18:31;;;;;;;;;;;2.40;99.90;;;;;;5020053;28;19999;-73
2022/01/02 04:21:02;;;;;;;;;;;2.40;99.90;;;;;;5035898;28;19921;-74
2022/01/02 04:23:29;;;;;;;;;;;2.40;99.90;;;;;;5035606;28;20019;-74
2022/01/02 04:26:01;;;;;;;;;;;2.40;99.90;;;;;;5020091;28;20458;-74
2022/01/02 04:28:33;;;;;;;;;;;2.40;99.90;;;;;;5035594;28;19920;-73
2022/01/02 04:31:05;;;;;;;;;;;2.40;99.90;;;;;;5036660;28;20015;-73
2022/01/02 04:33:32;;;;;;;;;;;2.40;99.90;;;;;;5035403;28;19924;-73
2022/01/02 04:36:04;;;;;;;;;;;2.50;99.90;;;;;;5053485;28;20004;-74
2022/01/02 04:38:37;;;;;;;;;;;2.50;99.90;;;;;;5052062;28;19927;-74
2022/01/02 04:41:04;;;;;;;;;;;2.50;99.90;;;;;;5035272;28;19970;-73
2022/01/02 04:43:36;;;;;;;;;;;2.50;99.90;;;;;;5019490;28;19920;-74
2022/01/02 04:46:09;;;;;;;;;;;2.60;99.90;;;;;;5019224;28;19947;-73
2022/01/02 04:48:36;;;;;;;;;;;2.60;99.90;;;;;;5018686;28;20307;-73
2022/01/02 04:51:07;;;;;;;;;;;2.70;99.90;;;;;;5019640;28;19999;-74
2022/01/02 04:53:47;;;;;;;;;;;2.70;99.90;;;;;;5019172;28;19921;-74
2022/01/02 04:56:18;;;;;;;;;;;2.60;99.90;;;;;;5035209;28;20397;-74
2022/01/02 04:58:46;;;;;;;;;;;2.70;99.90;;;;;;5018673;28;20405;-74
2022/01/02 05:01:14;;;;;;;;;;;2.70;99.90;;;;;;5035187;28;19920;-74
2022/01/02 05:03:45;;;;;;;;;;;2.70;99.90;;;;;;5035605;28;19920;-74
2022/01/02 05:06:18;;;;;;;;;;;2.70;99.90;;;;;;5034568;28;20378;-75
2022/01/02 05:08:49;;;;;;;;;;;2.60;99.90;;;;;;5034904;28;20289;-74
2022/01/02 05:11:17;;;;;;;;;;;2.60;99.90;;;;;;5034543;28;20015;-74
2022/01/02 05:13:44;;;;;;;;;;;2.60;99.90;;;;;;5034536;28;20388;-73
2022/01/02 05:16:11;;;;;;;;;;;2.60;99.90;;;;;;5034956;28;19931;-73
2022/01/02 05:18:38;;;;;;;;;;;2.60;99.90;;;;;;5018312;28;19928;-74
2022/01/02 05:21:10;;;;;;;;;;;2.60;99.90;;;;;;5034829;28;19975;-74
2022/01/02 05:23:42;;;;;;;;;;;2.60;99.90;;;;;;5034416;28;19931;-73
2022/01/02 05:26:14;;;;;;;;;;;2.60;99.90;;;;;;5035576;28;19999;-73
2022/01/02 05:28:41;;;;;;;;;;;2.60;99.90;;;;;;5034502;28;19928;-73
2022/01/02 05:31:13;;;;;;;;;;;2.60;99.90;;;;;;5034461;28;20309;-73
2022/01/02 05:33:40;;;;;;;;;;;2.60;99.90;;;;;;5034504;28;19927;-73
2022/01/02 05:36:07;;;;;;;;;;;2.70;99.90;;;;;;5051027;28;19921;-74
2022/01/02 05:38:34;;;;;;;;;;;2.70;99.90;;;;;;5034338;28;20389;-73
2022/01/02 05:41:06;;;;;;;;;;;2.70;99.90;;;;;;5035149;28;19921;-74
2022/01/02 05:43:33;;;;;;;;;;;2.70;99.90;;;;;;5033826;28;19927;-74
2022/01/02 05:46:05;;;;;;;;;;;2.60;99.90;;;;;;5034075;28;20380;-73
2022/01/02 05:48:33;;;;;;;;;;;2.60;99.90;;;;;;5017948;28;19927;-73
2022/01/02 05:51:01;;;;;;;;;;;2.60;99.90;;;;;;5034311;28;19927;-73
2022/01/02 05:53:32;;;;;;;;;;;2.50;99.90;;;;;;5033780;28;20004;-74
2022/01/02 05:56:04;;;;;;;;;;;2.60;99.90;;;;;;5052207;28;20194;-73
2022/01/02 05:58:37;;;;;;;;;;;2.60;99.90;;;;;;5033251;28;19925;-73
2022/01/02 06:01:09;;;;;;;;;;;2.60;99.90;;;;;;5018476;28;19928;-73
2022/01/02 06:03:41;;;;;;;;;;;2.50;99.90;;;;;;5033501;28;19971;-73
2022/01/02 06:06:08;;;;;;;;;;;2.50;99.90;;;;;;5017676;28;19928;-73
2022/01/02 06:08:35;;;;;;;;;;;2.50;99.90;;;;;;5034140;28;19927;-73
2022/01/02 06:11:01;;;;;;;;;;;2.60;99.90;;;;;;5033936;28;20374;-73
2022/01/02 06:13:33;;;;;;;;;;;2.50;99.90;;;;;;5034441;28;20297;-73
2022/01/02 06:16:05;;;;;;;;;;;2.50;99.90;;;;;;5018258;28;19920;-73
2022/01/02 06:18:32;;;;;;;;;;;2.50;99.90;;;;;;5029937;28;19929;-73
2022/01/02 06:21:04;;;;;;;;;;;2.40;99.90;;;;;;5034407;28;19928;-73
2022/01/02 06:23:37;;;;;;;;;;;2.50;99.90;;;;;;5029838;28;20369;-73
2022/01/02 06:26:05;;;;;;;;;;;2.50;99.90;;;;;;5033405;28;19927;-73
2022/01/02 06:28:37;;;;;;;;;;;2.40;99.90;;;;;;5051406;28;20297;-73
2022/01/02 06:31:09;;;;;;;;;;;2.40;99.90;;;;;;5013910;28;19920;-73
2022/01/02 06:33:37;;;;;;;;;;;2.40;99.90;;;;;;5020043;28;19980;-73
2022/01/02 06:36:04;;;;;;;;;;;2.40;99.90;;;;;;5031530;28;19947;-73
2022/01/02 06:38:30;;;;;;;;;;;2.40;99.90;;;;;;5033419;28;19921;-73
2022/01/02 06:41:03;;;;;;;;;;;2.30;99.90;;;;;;5033434;28;19925;-72
2022/01/02 06:43:34;;;;;;;;;;;2.30;99.90;;;;;;5023710;28;20395;-72
2022/01/02 06:46:02;;;;;;;;;;;2.40;99.90;;;;;;5028663;28;20132;-72
2022/01/02 06:48:29;;;;;;;;;;;2.40;99.90;;;;;;5043595;28;19933;-73
2022/01/02 06:50:56;;;;;;;;;;;2.50;99.90;;;;;;5038320;28;20307;-72
2022/01/02 06:53:24;;;;;;;;;;;2.50;99.90;;;;;;5052652;28;19925;-73
2022/01/02 06:55:57;;;;;;;;;;;2.60;99.90;;;;;;5043338;28;20024;-73
2022/01/02 06:58:24;;;;;;;;;;;2.60;99.90;;;;;;5028535;28;19921;-73
2022/01/02 07:00:56;;;;;;;;;;;2.60;99.90;;;;;;5027919;28;19921;-73
2022/01/02 07:03:27;;;;;;;;;;;2.50;99.90;;;;;;5032344;28;19942;-73
2022/01/02 07:05:54;;;;;;;;;;;2.50;99.90;;;;;;5032964;28;20402;-73
2022/01/02 07:08:27;;;;;;;;;;;2.60;99.90;;;;;;5033709;28;19925;-73
2022/01/02 07:11:00;;;;;;;;;;;2.60;99.90;;;;;;5034863;28;20376;-73
2022/01/02 07:13:32;;;;;;;;;;;2.60;99.90;;;;;;5036906;28;20292;-73
2022/01/02 07:16:03;;;;;;;;;;;2.60;99.90;;;;;;5054445;28;20487;-73
2022/01/02 07:18:35;;;;;;;;;;;2.60;99.90;;;;;;5036344;28;19927;-73
2022/01/02 07:21:07;;;;;;;;;;;2.60;99.90;;;;;;5046558;28;19927;-73
2022/01/02 07:23:38;;;;;;;;;;;2.60;99.90;;;;;;5053679;28;20018;-73
2022/01/02 07:26:10;;;;;;;;;;;2.60;99.90;;;;;;5053071;28;20019;-72
2022/01/02 07:28:37;;;;;;;;;;;2.60;99.90;;;;;;5036350;28;20011;-72
2022/01/02 07:31:08;;;;;;;;;;;2.60;99.90;;;;;;5036546;28;19967;-73
2022/01/02 07:33:40;;;;;;;;;;;2.60;99.90;;;;;;5024444;28;19921;-73
2022/01/02 07:36:12;;;;;;;;;;;2.70;99.90;;;;;;5038291;28;19960;-73
2022/01/02 07:38:38;;;;;;;;;;;2.70;99.90;;;;;;5054591;28;19942;-73
2022/01/02 07:41:10;;;;;;;;;;;2.70;99.90;;;;;;5036455;28;19927;-73
2022/01/02 07:43:42;;;;;;;;;;;2.70;99.90;;;;;;5019547;28;20464;-72
2022/01/02 07:46:13;;;;;;;;;;;2.70;99.90;;;;;;5053868;28;19924;-73
2022/01/02 07:48:40;;;;;;;;;;;2.80;99.90;;;;;;5035660;28;20016;-73
2022/01/02 07:51:12;;;;;;;;;;;2.80;99.90;;;;;;5034266;28;19963;-73
2022/01/02 07:53:39;;;;;;;;;;;2.80;99.90;;;;;;5018701;28;19921;-73
2022/01/02 07:56:10;;;;;;;;;;;2.80;99.90;;;;;;5035759;28;20011;-73
2022/01/02 07:58:42;;;;;;;;;;;2.80;99.90;;;;;;5019696;28;20015;-72
2022/01/02 08:01:09;;;;;;;;;;;2.80;99.90;;;;;;5039616;28;19920;-73
2022/01/02 08:03:41;;;;;;;;;;;2.90;99.90;;;;;;5030301;28;20016;-73
2022/01/02 08:06:13;;;;;;;;;;;2.80;99.90;;;;;;5027935;28;20011;-72
2022/01/02 08:08:39;;;;;;;;;;;2.80;99.90;;;;;;5029619;28;19983;-72
2022/01/02 08:11:06;;;;;;;;;;;2.80;99.90;;;;;;5061826;28;20029;-72
2022/01/02 08:13:32;;;;;;;;;;;2.80;99.90;;;;;;5034366;28;20004;-72
2022/01/02 08:16:04;;;;;;;;;;;2.80;99.90;;;;;;5034980;28;20019;-72
2022/01/02 08:18:36;;;;;;;;;;;2.80;99.90;;;;;;5067049;28;20122;-73
2022/01/02 08:21:08;;;;;;;;;;;2.80;99.90;;;;;;5039477;28;19971;-73
2022/01/02 08:23:35;;;;;;;;;;;2.80;99.90;;;;;;5044924;28;20446;-72
2022/01/02 08:26:07;;;;;;;;;;;2.80;99.90;;;;;;5033606;28;20020;-73
2022/01/02 08:28:38;;;;;;;;;;;2.80;99.90;;;;;;5018751;28;19927;-74
2022/01/02 08:31:05;;;;;;;;;;;2.80;99.90;;;;;;5034504;28;19956;-73
2022/01/02 08:33:37;;;;;;;;;;;2.70;99.90;;;;;;5038543;28;20345;-73
2022/01/02 08:36:05;;;;;;;;;;;2.60;99.90;;;;;;5051979;28;19967;-73
2022/01/02 08:38:31;;;;;;;;;;;2.60;99.90;;;;;;5059791;28;19952;-73
2022/01/02 08:40:58;;;;;;;;;;;2.50;99.90;;;;;;5034037;28;19920;-73
2022/01/02 08:43:34;;;;;;;;;;;2.50;99.90;;;;;;5033294;28;20016;-73
2022/01/02 08:46:06;;;;;;;;;;;2.50;99.90;;;;;;5018180;28;19971;-73
2022/01/02 08:48:37;;;;;;;;;;;2.60;99.90;;;;;;5018263;28;19956;-74
2022/01/02 08:51:12;;;;;;;;;;;2.70;99.90;;;;;;5016326;28;20027;-73
2022/01/02 08:53:39;;;;;;;;;;;2.80;99.90;;;;;;5036000;28;19967;-73
2022/01/02 08:56:06;;;;;;;;;;;2.90;99.90;;;;;;5025444;28;19956;-73
2022/01/02 08:58:33;;;;;;;;;;;3.00;99.90;;;;;;5033948;28;19947;-73
2022/01/02 09:01:00;;;;;;;;;;;3.10;99.90;;;;;;5021069;28;20432;-74
2022/01/02 09:03:27;;;;;;;;;;;3.20;99.90;;;;;;5028572;28;19956;-74
2022/01/02 09:05:53;;;;;;;;;;;3.30;99.90;;;;;;5044943;28;19928;-74
2022/01/02 09:08:20;;;;;;;;;;;3.40;99.90;;;;;;5010903;28;20146;-74
2022/01/02 09:10:47;;;;;;;;;;;3.50;99.90;;;;;;5017498;28;20016;-74
2022/01/02 09:13:20;;;;;;;;;;;3.60;99.90;;;;;;5033651;28;19964;-74
2022/01/02 09:15:53;;;;;;;;;;;3.70;99.90;;;;;;5033981;28;19927;-74
2022/01/02 09:18:20;;;;;;;;;;;3.80;99.90;;;;;;5034211;28;19967;-74
2022/01/02 09:20:52;;;;;;;;;;;3.90;99.90;;;;;;5034330;28;20015;-74
2022/01/02 09:23:23;;;;;;;;;;;4.00;99.90;;;;;;5051341;28;19929;-74
2022/01/02 09:25:50;;;;;;;;;;;4.10;99.90;;;;;;5032612;28;19924;-74
2022/01/02 09:28:22;;;;;;;;;;;4.20;99.90;;;;;;5031833;28;20443;-75
2022/01/02 09:30:49;;;;;;;;;;;4.30;99.90;;;;;;5045113;28;20389;-74
2022/01/02 09:33:15;;;;;;;;;;;4.40;99.90;;;;;;5030077;28;19933;-74
2022/01/02 09:35:47;;;;;;;;;;;4.40;99.90;;;;;;5044200;28;20033;-74
2022/01/02 09:38:15;;;;;;;;;;;4.50;99.90;;;;;;5033221;28;19929;-74
2022/01/02 09:40:42;;;;;;;;;;;4.40;99.90;;;;;;5051730;28;19921;-74
2022/01/02 09:43:08;;;;;;;;;;;4.50;99.90;;;;;;5036231;28;19970;-74
2022/01/02 09:45:38;;;;;;;;;;;4.50;99.90;;;;;;5033000;28;19927;-74
2022/01/02 09:48:05;;;;;;;;;;;4.50;99.90;;;;;;5034981;28;20377;-75
2022/01/02 09:50:32;;;;;;;;;;;4.50;99.90;;;;;;5033637;28;20023;-74
2022/01/02 09:53:05;;;;;;;;;;;4.50;99.90;;;;;;5031973;28;20019;-74
2022/01/02 09:55:31;;;;;;;;;;;4.60;99.90;;;;;;5044816;28;20015;-75
2022/01/02 09:58:09;;;;;;;;;;;4.60;99.90;;;;;;5049776;28;20031;-74
2022/01/02 10:00:37;;;;;;;;;;;4.60;99.90;;;;;;5011310;28;19956;-74
2022/01/02 10:03:05;;;;;;;;;;;4.60;99.90;;;;;;5013272;28;19921;-74
2022/01/02 10:05:51;;;;;;;;;;;4.50;99.90;;;;;;5017942;28;19921;-74
2022/01/02 10:08:31;;;;;;;;;;;4.60;99.90;;;;;;5020248;28;20054;-74
2022/01/02 10:10:58;;;;;;;;;;;4.60;99.90;;;;;;5028588;28;19978;-74
2022/01/02 10:13:38;;;;;;;;;;;4.70;99.90;;;;;;5030926;28;19925;-75
2022/01/02 10:16:17;;;;;;;;;;;4.80;99.90;;;;;;5071429;28;19963;-74
2022/01/02 10:18:44;;;;;;;;;;;4.80;99.90;;;;;;5053592;28;19972;-74
2022/01/02 10:21:34;;;;;;;;;;;4.90;99.90;;;;;;5053708;28;19920;-74
2022/01/02 10:24:27;;;;;;;;;;;5.00;99.90;;;;;;5035213;28;19920;-73
2022/01/02 10:27:07;;;;;;;;;;;5.10;99.90;;;;;;5032677;28;19925;-73
2022/01/02 10:29:42;;;;;;;;;;;5.30;99.90;;;;;;5033222;28;20032;-73
2022/01/02 10:32:23;;;;;;;;;;;5.40;99.90;;;;;;5033932;28;19927;-73
2022/01/02 10:34:50;;;;;;;;;;;5.70;99.90;;;;;;5033986;28;19960;-73
2022/01/02 10:37:25;;;;;;;;;;;6.00;99.90;;;;;;5017773;28;20452;-73
2022/01/02 10:39:57;;;;;;;;;;;6.60;99.90;;;;;;5032687;28;20487;-73
2022/01/02 10:42:24;;;;;;;;;;;8.00;99.90;;;;;;5032748;28;19960;-73
2022/01/02 10:44:50;;;;;;;;;;;8.80;99.90;;;;;;5035810;28;19959;-78
2022/01/02 10:47:24;;;;;;;;;;;9.40;99.90;;;;;;5037246;28;19920;-74
2022/01/02 10:50:04;;;;;;;;;;;9.90;99.90;;;;;;5040839;28;19921;-73
2022/01/02 10:52:35;;;;;;;;;;;10.20;99.90;;;;;;5032683;28;19924;-74
2022/01/02 10:55:15;;;;;;;;;;;10.60;99.90;;;;;;5053651;28;20023;-73
2022/01/02 10:57:42;;;;;;;;;;;10.70;99.90;;;;;;5036717;28;19956;-74
2022/01/02 11:00:15;;;;;;;;;;;10.80;99.90;;;;;;5037975;28;19924;-73
2022/01/02 11:02:43;;;;;;;;;;;10.80;99.90;;;;;;5036291;28;19971;-73
2022/01/02 11:05:16;;;;;;;;;;;11.00;99.90;;;;;;5037663;28;19920;-74
2022/01/02 11:07:50;;;;;;;;;;;11.30;99.90;;;;;;5037195;28;19927;-73
2022/01/02 11:10:18;;;;;;;;;;;11.40;99.90;;;;;;5054531;28;19967;-74
2022/01/02 11:12:50;;;;;;;;;;;11.60;99.90;;;;;;5036109;28;19927;-73
2022/01/02 11:15:18;;;;;;;;;;;11.80;99.90;;;;;;5036523;28;20046;-74
2022/01/02 11:17:50;;;;;;;;;;;11.90;99.90;;;;;;5054266;28;20027;-73
2022/01/02 11:20:28;;;;;;;;;;;12.00;99.90;;;;;;5036413;28;19943;-73
2022/01/02 11:23:10;;;;;;;;;;;11.90;99.90;;;;;;5036046;28;19925;-73
2022/01/02 11:25:41;;;;;;;;;;;11.90;99.90;;;;;;5016797;28;19927;-73
2022/01/02 11:28:22;;;;;;;;;;;11.80;99.90;;;;;;5032680;28;20031;-74
2022/01/02 11:30:50;;;;;;;;;;;11.80;99.90;;;;;;5036336;28;19971;-74
2022/01/02 11:33:29;;;;;;;;;;;11.80;99.90;;;;;;5036717;28;20304;-73
2022/01/02 11:36:21;;;;;;;;;;;11.80;99.90;;;;;;5036290;28;20019;-74
2022/01/02 11:38:56;;;;;;;;;;;11.80;99.90;;;;;;5017223;28;20007;-74
2022/01/02 11:41:47;;;;;;;;;;;11.90;99.90;;;;;;5035559;28;20366;-74
2022/01/02 11:44:14;;;;;;;;;;;12.00;99.90;;;;;;5033570;28;20044;-73
2022/01/02 11:46:45;;;;;;;;;;;12.10;99.90;;;;;;5035774;28;21574;-73
2022/01/02 11:49:13;;;;;;;;;;;12.20;99.90;;;;;;5046716;28;19921;-73
2022/01/02 11:51:58;;;;;;;;;;;12.30;99.90;;;;;;5028398;28;20032;-73
2022/01/02 11:57:11;;;;;;;;;;;12.60;99.90;;;;;;5060173;28;19966;-74
2022/01/02 11:59:46;;;;;;;;;;;12.60;99.90;;;;;;5056480;28;20644;-74
2022/01/02 12:02:12;;;;;;;;;;;12.70;99.90;;;;;;5042137;28;20069;-74
2022/01/02 12:05:00;;;;;;;;;;;12.60;99.90;;;;;;5033064;28;20031;-74
2022/01/02 12:07:32;;;;;;;;;;;12.50;99.90;;;;;;5031638;28;19952;-74
2022/01/02 12:10:13;;;;;;;;;;;12.50;99.90;;;;;;5053773;28;19982;-74
2022/01/02 12:12:55;;;;;;;;;;;12.50;99.90;;;;;;5024727;28;19959;-74
2022/01/02 12:15:23;;;;;;;;;;;12.50;99.90;;;;;;5035657;28;19925;-74
2022/01/02 12:18:29;;;;;;;;;;;12.60;99.90;;;;;;5035276;28;19967;-74
2022/01/02 12:21:03;;;;;;;;;;;12.60;99.90;;;;;;5007528;28;19975;-74
2022/01/02 12:23:33;;;;;;;;;;;12.70;99.90;;;;;;5035459;28;19970;-74
2022/01/02 12:26:05;;;;;;;;;;;12.70;99.90;;;;;;5035434;28;19925;-75
2022/01/02 12:28:37;;;;;;;;;;;12.70;99.90;;;;;;5029234;28;20017;-73
2022/01/02 12:31:10;;;;;;;;;;;12.60;99.30;;;;;;5016537;28;20137;-74
2022/01/02 12:33:37;;;;;;;;;;;12.60;99.90;;;;;;5048096;28;20308;-74
2022/01/02 12:36:09;;;;;;;;;;;12.60;99.90;;;;;;5072966;28;20656;-74
2022/01/02 12:38:55;;;;;;;;;;;12.50;99.90;;;;;;5055891;28;19920;-74
2022/01/02 12:41:28;;;;;;;;;;;12.50;99.90;;;;;;5035626;28;19921;-74
2022/01/02 12:44:04;;;;;;;;;;;12.50;99.90;;;;;;5034048;28;20021;-75
2022/01/02 12:46:45;;;;;;;;;;;12.50;99.10;;;;;;5037822;28;19990;-75
2022/01/02 12:49:16;;;;;;;;;;;12.50;99.90;;;;;;5049108;28;20011;-74
2022/01/02 12:51:49;;;;;;;;;;;12.50;99.10;;;;;;5040530;28;20593;-73
2022/01/02 12:54:23;;;;;;;;;;;12.40;99.60;;;;;;5034876;28;19964;-73
2022/01/02 12:56:57;;;;;;;;;;;12.40;98.30;;;;;;5017807;28;20027;-74
2022/01/02 12:59:34;;;;;;;;;;;12.50;99.30;;;;;;5023519;28;19921;-74
2022/01/02 13:02:13;;;;;;;;;;;12.40;98.50;;;;;;5034943;28;22124;-74
2022/01/02 13:04:42;;;;;;;;;;;12.40;99.60;;;;;;5042084;28;20012;-73
2022/01/02 13:07:12;;;;;;;;;;;12.50;99.40;;;;;;5031231;28;19960;-74
2022/01/02 13:10:05;;;;;;;;;;;12.50;99.60;;;;;;5052062;28;19974;-74
2022/01/02 13:12:35;;;;;;;;;;;12.50;99.20;;;;;;5049899;28;20012;-73
2022/01/02 13:15:08;;;;;;;;;;;12.50;98.80;;;;;;5052104;28;19960;-74
2022/01/02 13:17:41;;;;;;;;;;;12.50;98.40;;;;;;5034426;28;19952;-74
2022/01/02 13:20:08;;;;;;;;;;;12.50;98.20;;;;;;5034758;28;20031;-74
2022/01/02 13:22:43;;;;;;;;;;;12.40;99.00;;;;;;5036630;28;20011;-73
2022/01/02 13:25:11;;;;;;;;;;;12.30;99.90;;;;;;5043168;28;19925;-73
2022/01/02 13:27:57;;;;;;;;;;;12.30;99.10;;;;;;5045240;28;20324;-74
2022/01/02 13:30:31;;;;;;;;;;;12.30;99.90;;;;;;5051219;28;20409;-73
2022/01/02 13:33:02;;;;;;;;;;;12.20;99.20;;;;;;5048160;28;19920;-73
2022/01/02 13:35:29;;;;;;;;;;;12.20;99.40;;;;;;5025576;28;19964;-72
2022/01/02 13:38:00;;;;;;;;;;;12.30;99.70;;;;;;5022507;28;19921;-73
2022/01/02 13:40:28;;;;;;;;;;;12.20;99.10;;;;;;5031599;28;19986;-75
2022/01/02 13:43:11;;;;;;;;;;;12.20;98.50;;;;;;5032717;28;20364;-73
2022/01/02 13:45:43;;;;;;;;;;;12.20;99.70;;;;;;5048684;28;19964;-73
2022/01/02 13:48:19;;;;;;;;;;;12.20;98.80;;;;;;5018286;28;20043;-73
2022/01/02 13:50:52;;;;;;;;;;;12.20;98.70;;;;;;5035214;28;19975;-73
2022/01/02 13:53:21;;;;;;;;;;;12.20;99.00;;;;;;5050500;28;20015;-73
2022/01/02 13:55:49;;;;;;;;;;;12.10;99.40;;;;;;5034269;28;19928;-73
2022/01/02 13:58:22;;;;;;;;;;;12.10;99.30;;;;;;5052012;28;19994;-73
2022/01/02 14:00:50;;;;;;;;;;;12.10;98.90;;;;;;5017852;28;19959;-74
2022/01/02 14:03:33;;;;;;;;;;;12.00;99.80;;;;;;5034670;28;19920;-73
2022/01/02 14:06:01;;;;;;;;;;;12.00;99.40;;;;;;5017616;28;20415;-73
2022/01/02 14:08:40;;;;;;;;;;;12.00;99.30;;;;;;5034116;28;19924;-73
2022/01/02 14:11:09;;;;;;;;;;;12.00;99.30;;;;;;5017606;28;19967;-73
2022/01/02 14:13:51;;;;;;;;;;;12.10;99.20;;;;;;5051429;28;20022;-73
2022/01/02 14:16:43;;;;;;;;;;;12.00;99.30;;;;;;5034119;28;20335;-74
2022/01/02 14:19:08;;;;;;;;;;;12.00;99.90;;;;;;5033020;28;19920;-73
2022/01/02 14:21:39;;;;;;;;;;;12.00;99.30;;;;;;5051836;28;19928;-73
2022/01/02 14:24:11;;;;;;;;;;;12.00;99.90;;;;;;5034546;28;19970;-73
2022/01/02 14:26:43;;;;;;;;;;;12.00;99.90;;;;;;5034636;28;20448;-73
2022/01/02 14:29:15;;;;;;;;;;;12.00;99.90;;;;;;5033720;28;19948;-73
2022/01/02 14:31:42;;;;;;;;;;;12.10;99.60;;;;;;5051701;28;19920;-73
2022/01/02 14:34:09;;;;;;;;;;;12.10;99.90;;;;;;5051259;28;19959;-74
2022/01/02 14:36:41;;;;;;;;;;;12.10;99.80;;;;;;5051579;28;20015;-73
2022/01/02 14:39:08;;;;;;;;;;;12.10;99.80;;;;;;5051657;28;19963;-74
2022/01/02 14:41:40;;;;;;;;;;;12.00;99.70;;;;;;5051773;28;20392;-73
2022/01/02 14:44:10;;;;;;;;;;;12.00;99.90;;;;;;5033563;28;19956;-73
2022/01/02 14:46:38;;;;;;;;;;;11.90;99.90;;;;;;5051448;28;19956;-73
2022/01/02 14:49:04;;;;;;;;;;;11.90;99.90;;;;;;5033239;28;19971;-74
2022/01/02 14:51:31;;;;;;;;;;;11.80;99.90;;;;;;5033934;28;19921;-73
2022/01/02 14:54:03;;;;;;;;;;;11.80;99.90;;;;;;5017566;28;20369;-73
2022/01/02 14:56:30;;;;;;;;;;;11.70;99.90;;;;;;5050243;28;20351;-73
2022/01/02 14:59:02;;;;;;;;;;;11.70;99.90;;;;;;5051415;28;20015;-73
2022/01/02 15:01:28;;;;;;;;;;;11.70;99.90;;;;;;5033644;28;20589;-73
2022/01/02 15:03:55;;;;;;;;;;;11.60;99.90;;;;;;5033373;28;19966;-73